createdAt,value
2019-03-05T00:00:35.194Z,4.00
2019-03-05T00:01:35.190Z,4.00
2019-03-05T00:02:35.178Z,8.00
2019-03-05T00:03:35.167Z,4.00
2019-03-05T00:04:35.198Z,4.00
2019-03-05T00:05:35.141Z,8.00
2019-03-05T00:06:35.142Z,8.00
2019-03-05T00:07:35.116Z,8.00
2019-03-05T00:08:35.110Z,8.00
2019-03-05T00:09:35.105Z,4.00
2019-03-05T00:10:35.120Z,4.00
2019-03-05T00:11:35.076Z,4.00
2019-03-05T00:12:37.916Z,4.00
2019-03-05T00:14:34.044Z,4.00
2019-03-05T00:15:35.036Z,4.00
2019-03-05T00:16:35.969Z,4.00
2019-03-05T00:17:35.008Z,8.00
2019-03-05T00:18:35.001Z,8.00
2019-03-05T00:19:35.020Z,8.00
2019-03-05T00:20:34.984Z,4.00
2019-03-05T00:21:34.973Z,4.00
2019-03-05T00:22:34.963Z,4.00
2019-03-05T00:23:34.950Z,4.00
2019-03-05T00:24:35.456Z,4.00
2019-03-05T00:25:34.932Z,4.00
2019-03-05T00:26:34.914Z,8.00
2019-03-05T00:27:34.906Z,8.00
2019-03-05T00:28:34.905Z,8.00
2019-03-05T00:29:34.905Z,8.00
2019-03-05T00:30:34.872Z,8.00
2019-03-05T00:31:34.866Z,4.00
2019-03-05T00:32:34.854Z,4.00
2019-03-05T00:33:34.846Z,4.00
2019-03-05T00:34:34.880Z,4.00
2019-03-05T00:35:34.817Z,4.00
2019-03-05T00:36:34.812Z,4.00
2019-03-05T00:37:34.800Z,4.00
2019-03-05T00:38:34.788Z,8.00
2019-03-05T00:39:35.412Z,4.00
2019-03-05T00:40:34.818Z,4.00
2019-03-05T00:41:34.756Z,8.00
2019-03-05T00:42:34.744Z,4.00
2019-03-05T00:43:37.408Z,4.00
2019-03-05T00:44:34.726Z,8.00
2019-03-05T00:45:34.714Z,8.00
2019-03-05T00:46:34.818Z,4.00
2019-03-05T00:47:34.690Z,8.00
2019-03-05T00:48:34.677Z,4.00
2019-03-05T00:49:37.398Z,4.00
2019-03-05T00:50:34.654Z,8.00
2019-03-05T00:51:35.401Z,4.00
2019-03-05T00:52:34.666Z,4.00
2019-03-05T00:53:34.624Z,4.00
2019-03-05T00:54:34.627Z,4.00
2019-03-05T00:55:34.600Z,8.00
2019-03-05T00:56:34.592Z,8.00
2019-03-05T00:57:34.582Z,4.00
2019-03-05T00:58:34.597Z,8.00
2019-03-05T00:59:34.617Z,8.00
2019-03-05T01:00:34.546Z,4.00
2019-03-05T01:01:34.540Z,4.00
2019-03-05T01:02:34.521Z,4.00
2019-03-05T01:03:34.548Z,4.00
2019-03-05T01:04:34.538Z,8.00
2019-03-05T01:05:34.522Z,4.00
2019-03-05T01:06:34.483Z,8.00
2019-03-05T01:07:34.476Z,8.00
2019-03-05T01:08:34.464Z,4.00
2019-03-05T01:09:34.451Z,4.00
2019-03-05T01:10:34.440Z,8.00
2019-03-05T01:11:34.458Z,4.00
2019-03-05T01:12:34.415Z,8.00
2019-03-05T01:13:34.410Z,8.00
2019-03-05T01:14:34.396Z,8.00
2019-03-05T01:15:34.392Z,4.00
2019-03-05T01:17:33.368Z,8.00
2019-03-05T01:18:34.352Z,4.00
2019-03-05T01:19:34.906Z,4.00
2019-03-05T01:20:37.389Z,4.00
2019-03-05T01:21:34.353Z,8.00
2019-03-05T01:22:34.309Z,4.00
2019-03-05T01:23:34.297Z,4.00
2019-03-05T01:24:34.285Z,4.00
2019-03-05T01:25:34.278Z,4.00
2019-03-05T01:26:34.300Z,4.00
2019-03-05T01:27:34.256Z,4.00
2019-03-05T01:28:34.245Z,4.00
2019-03-05T01:29:36.889Z,4.00
2019-03-05T01:30:34.228Z,8.00
2019-03-05T01:31:34.239Z,8.00
2019-03-05T01:32:36.886Z,4.00
2019-03-05T01:33:34.224Z,8.00
2019-03-05T01:34:34.181Z,8.00
2019-03-05T01:35:34.179Z,8.00
2019-03-05T01:36:34.159Z,4.00
2019-03-05T01:37:34.155Z,8.00
2019-03-05T01:38:34.141Z,8.00
2019-03-05T01:39:34.153Z,4.00
2019-03-05T01:40:34.119Z,4.00
2019-03-05T01:41:34.107Z,4.00
2019-03-05T01:42:34.101Z,4.00
2019-03-05T01:43:34.081Z,8.00
2019-03-05T01:44:34.109Z,8.00
2019-03-05T01:45:34.065Z,4.00
2019-03-05T01:46:34.078Z,4.00
2019-03-05T01:47:34.037Z,4.00
2019-03-05T01:48:34.029Z,4.00
2019-03-05T01:49:34.027Z,4.00
2019-03-05T01:50:34.007Z,4.00
2019-03-05T01:51:33.997Z,8.00
2019-03-05T01:52:33.997Z,8.00
2019-03-05T01:53:33.972Z,8.00
2019-03-05T01:54:33.995Z,8.00
2019-03-05T01:55:33.951Z,4.00
2019-03-05T01:56:33.945Z,8.00
2019-03-05T01:57:33.927Z,8.00
2019-03-05T01:58:33.924Z,8.00
2019-03-05T01:59:33.906Z,4.00
2019-03-05T02:00:33.933Z,8.00
2019-03-05T02:01:33.885Z,8.00
2019-03-05T02:02:33.875Z,4.00
2019-03-05T02:03:33.869Z,4.00
2019-03-05T02:04:33.851Z,4.00
2019-03-05T02:05:33.843Z,8.00
2019-03-05T02:06:33.863Z,8.00
2019-03-05T02:07:33.824Z,8.00
2019-03-05T02:08:33.823Z,8.00
2019-03-05T02:09:33.799Z,8.00
2019-03-05T02:10:33.793Z,4.00
2019-03-05T02:11:33.779Z,4.00
2019-03-05T02:12:33.843Z,4.00
2019-03-05T02:13:33.760Z,8.00
2019-03-05T02:14:33.758Z,4.00
2019-03-05T02:15:33.741Z,8.00
2019-03-05T02:16:33.762Z,4.00
2019-03-05T02:17:33.711Z,8.00
2019-03-05T02:18:33.712Z,4.00
2019-03-05T02:19:33.695Z,4.00
2019-03-05T02:20:33.679Z,4.00
2019-03-05T02:21:33.671Z,4.00
2019-03-05T02:22:33.687Z,4.00
2019-03-05T02:23:33.651Z,4.00
2019-03-05T02:24:33.646Z,4.00
2019-03-05T02:25:34.376Z,4.00
2019-03-05T02:26:33.623Z,4.00
2019-03-05T02:27:33.607Z,4.00
2019-03-05T02:28:33.630Z,4.00
2019-03-05T02:29:33.585Z,4.00
2019-03-05T02:30:33.575Z,8.00
2019-03-05T02:31:33.593Z,4.00
2019-03-05T02:32:34.378Z,4.00
2019-03-05T02:33:33.541Z,4.00
2019-03-05T02:34:33.535Z,36.00
2019-03-05T02:35:33.527Z,40.00
2019-03-05T02:36:33.515Z,40.00
2019-03-05T02:37:33.537Z,44.00
2019-03-05T02:38:34.367Z,44.00
2019-03-05T02:39:33.482Z,44.00
2019-03-05T02:40:33.470Z,44.00
2019-03-05T02:41:33.458Z,44.00
2019-03-05T02:42:33.442Z,44.00
2019-03-05T02:43:33.463Z,44.00
2019-03-05T02:44:33.447Z,44.00
2019-03-05T02:45:33.415Z,44.00
2019-03-05T02:46:33.405Z,44.00
2019-03-05T02:47:33.389Z,44.00
2019-03-05T02:48:33.870Z,44.00
2019-03-05T02:49:33.397Z,44.00
2019-03-05T02:50:33.361Z,4.00
2019-03-05T02:51:33.345Z,4.00
2019-03-05T02:52:33.337Z,4.00
2019-03-05T02:53:33.323Z,4.00
2019-03-05T02:54:33.314Z,4.00
2019-03-05T02:55:33.332Z,4.00
2019-03-05T02:56:33.298Z,4.00
2019-03-05T02:57:33.288Z,4.00
2019-03-05T02:58:33.861Z,4.00
2019-03-05T02:59:33.254Z,4.00
2019-03-05T03:00:33.246Z,4.00
2019-03-05T03:01:35.859Z,4.00
2019-03-05T03:02:33.227Z,8.00
2019-03-05T03:03:33.219Z,4.00
2019-03-05T03:04:33.199Z,4.00
2019-03-05T03:05:33.315Z,4.00
2019-03-05T03:06:33.180Z,4.00
2019-03-05T03:07:33.204Z,4.00
2019-03-05T03:08:33.158Z,8.00
2019-03-05T03:09:33.147Z,4.00
2019-03-05T03:10:33.143Z,4.00
2019-03-05T03:11:33.129Z,4.00
2019-03-05T03:12:33.111Z,4.00
2019-03-05T03:13:33.127Z,8.00
2019-03-05T03:14:33.100Z,4.00
2019-03-05T03:15:33.091Z,4.00
2019-03-05T03:16:33.074Z,4.00
2019-03-05T03:17:33.064Z,4.00
2019-03-05T03:18:33.075Z,4.00
2019-03-05T03:19:33.037Z,4.00
2019-03-05T03:20:33.029Z,4.00
2019-03-05T03:21:33.011Z,4.00
2019-03-05T03:22:33.005Z,4.00
2019-03-05T03:23:33.026Z,4.00
2019-03-05T03:24:32.984Z,4.00
2019-03-05T03:25:32.972Z,4.00
2019-03-05T03:26:32.973Z,4.00
2019-03-05T03:27:32.947Z,4.00
2019-03-05T03:28:33.858Z,4.00
2019-03-05T03:29:32.961Z,4.00
2019-03-05T03:30:32.977Z,4.00
2019-03-05T03:31:32.912Z,4.00
2019-03-05T03:32:32.902Z,4.00
2019-03-05T03:33:32.890Z,4.00
2019-03-05T03:34:32.874Z,4.00
2019-03-05T03:35:32.917Z,4.00
2019-03-05T03:36:35.359Z,4.00
2019-03-05T03:37:32.843Z,4.00
2019-03-05T03:38:32.863Z,4.00
2019-03-05T03:39:32.822Z,4.00
2019-03-05T03:40:35.345Z,4.00
2019-03-05T03:41:32.794Z,4.00
2019-03-05T03:42:32.787Z,4.00
2019-03-05T03:43:32.772Z,4.00
2019-03-05T03:44:35.891Z,4.00
2019-03-05T03:45:32.786Z,4.00
2019-03-05T03:46:32.742Z,4.00
2019-03-05T03:47:32.735Z,4.00
2019-03-05T03:48:32.727Z,4.00
2019-03-05T03:49:32.708Z,4.00
2019-03-05T03:50:32.703Z,4.00
2019-03-05T03:51:32.731Z,8.00
2019-03-05T03:52:32.680Z,4.00
2019-03-05T03:53:32.729Z,4.00
2019-03-05T03:54:32.672Z,4.00
2019-03-05T03:55:32.645Z,4.00
2019-03-05T03:56:33.352Z,4.00
2019-03-05T03:57:32.623Z,4.00
2019-03-05T03:58:32.643Z,8.00
2019-03-05T03:59:32.598Z,4.00
2019-03-05T04:00:32.600Z,4.00
2019-03-05T04:01:32.580Z,4.00
2019-03-05T04:02:32.572Z,4.00
2019-03-05T04:03:32.595Z,4.00
2019-03-05T04:04:32.552Z,4.00
2019-03-05T04:05:32.535Z,4.00
2019-03-05T04:06:32.526Z,4.00
2019-03-05T04:07:35.347Z,8.00
2019-03-05T04:08:32.514Z,4.00
2019-03-05T04:09:32.522Z,4.00
2019-03-05T04:10:32.477Z,4.00
2019-03-05T04:11:32.472Z,8.00
2019-03-05T04:12:32.457Z,8.00
2019-03-05T04:13:32.446Z,8.00
2019-03-05T04:14:32.467Z,8.00
2019-03-05T04:15:32.456Z,4.00
2019-03-05T04:16:35.341Z,4.00
2019-03-05T04:17:32.405Z,8.00
2019-03-05T04:19:31.388Z,4.00
2019-03-05T04:20:32.377Z,4.00
2019-03-05T04:21:32.357Z,8.00
2019-03-05T04:22:32.358Z,8.00
2019-03-05T04:23:32.341Z,8.00
2019-03-05T04:24:32.364Z,4.00
2019-03-05T04:25:32.317Z,4.00
2019-03-05T04:26:32.863Z,4.00
2019-03-05T04:27:32.290Z,8.00
2019-03-05T04:28:32.296Z,4.00
2019-03-05T04:29:32.274Z,4.00
2019-03-05T04:30:32.301Z,4.00
2019-03-05T04:31:32.251Z,4.00
2019-03-05T04:32:32.249Z,4.00
2019-03-05T04:33:32.883Z,4.00
2019-03-05T04:34:32.227Z,4.00
2019-03-05T04:35:32.210Z,8.00
2019-03-05T04:36:32.207Z,8.00
2019-03-05T04:37:32.221Z,8.00
2019-03-05T04:38:32.174Z,8.00
2019-03-05T04:39:32.170Z,4.00
2019-03-05T04:40:32.153Z,4.00
2019-03-05T04:41:32.185Z,8.00
2019-03-05T04:42:32.132Z,4.00
2019-03-05T04:43:32.150Z,4.00
2019-03-05T04:44:32.115Z,4.00
2019-03-05T04:45:32.100Z,4.00
2019-03-05T04:46:32.120Z,4.00
2019-03-05T04:47:32.081Z,4.00
2019-03-05T04:48:32.074Z,4.00
2019-03-05T04:49:32.059Z,4.00
2019-03-05T04:50:32.050Z,4.00
2019-03-05T04:51:32.063Z,4.00
2019-03-05T04:52:32.024Z,4.00
2019-03-05T04:53:32.024Z,4.00
2019-03-05T04:54:34.837Z,8.00
2019-03-05T04:55:31.993Z,4.00
2019-03-05T04:56:31.979Z,4.00
2019-03-05T04:57:32.072Z,8.00
2019-03-05T04:58:31.960Z,4.00
2019-03-05T04:59:31.950Z,4.00
2019-03-05T05:00:31.939Z,4.00
2019-03-05T05:01:31.929Z,4.00
2019-03-05T05:02:31.916Z,4.00
2019-03-05T05:03:31.931Z,4.00
2019-03-05T05:04:31.899Z,4.00
2019-03-05T05:05:31.878Z,4.00
2019-03-05T05:06:31.898Z,4.00
2019-03-05T05:07:31.864Z,4.00
2019-03-05T05:08:31.864Z,4.00
2019-03-05T05:09:31.838Z,4.00
2019-03-05T05:10:31.836Z,4.00
2019-03-05T05:11:31.814Z,4.00
2019-03-05T05:12:31.842Z,4.00
2019-03-05T05:13:31.816Z,4.00
2019-03-05T05:14:32.323Z,4.00
2019-03-05T05:15:31.769Z,4.00
2019-03-05T05:16:31.762Z,8.00
2019-03-05T05:17:32.326Z,8.00
2019-03-05T05:18:31.770Z,8.00
2019-03-05T05:19:31.732Z,8.00
2019-03-05T05:20:31.718Z,4.00
2019-03-05T05:21:31.732Z,8.00
2019-03-05T05:22:31.698Z,8.00
2019-03-05T05:23:31.682Z,12.00
2019-03-05T05:24:32.316Z,8.00
2019-03-05T05:25:31.664Z,12.00
2019-03-05T05:26:31.648Z,12.00
2019-03-05T05:28:30.629Z,16.00
2019-03-05T05:29:31.616Z,16.00
2019-03-05T05:30:31.603Z,20.00
2019-03-05T05:31:31.594Z,20.00
2019-03-05T05:32:31.604Z,24.00
2019-03-05T05:33:33.357Z,28.00
2019-03-05T05:34:31.586Z,28.00
2019-03-05T05:35:31.550Z,36.00
2019-03-05T05:36:34.318Z,36.00
2019-03-05T05:37:31.526Z,40.00
2019-03-05T05:38:31.523Z,44.00
2019-03-05T05:39:31.506Z,52.00
2019-03-05T05:40:31.529Z,60.00
2019-03-05T05:41:31.499Z,68.00
2019-03-05T05:42:31.476Z,68.00
2019-03-05T05:43:31.466Z,72.00
2019-03-05T05:44:31.454Z,84.00
2019-03-05T05:45:32.311Z,96.00
2019-03-05T05:46:31.464Z,100.00
2019-03-05T05:47:31.418Z,108.00
2019-03-05T05:48:31.411Z,108.00
2019-03-05T05:49:31.400Z,108.00
2019-03-05T05:50:31.388Z,116.00
2019-03-05T05:51:31.377Z,132.00
2019-03-05T05:52:31.391Z,144.00
2019-03-05T05:53:31.356Z,156.00
2019-03-05T05:54:31.364Z,160.00
2019-03-05T05:55:31.331Z,172.00
2019-03-05T05:56:31.318Z,168.00
2019-03-05T05:57:31.314Z,180.00
2019-03-05T05:58:31.300Z,196.00
2019-03-05T05:59:31.314Z,232.00
2019-03-05T06:00:31.283Z,244.00
2019-03-05T06:01:31.270Z,244.00
2019-03-05T06:02:31.261Z,256.00
2019-03-05T06:03:31.247Z,272.00
2019-03-05T06:04:31.368Z,264.00
2019-03-05T06:05:31.220Z,272.00
2019-03-05T06:06:31.224Z,284.00
2019-03-05T06:07:31.208Z,288.00
2019-03-05T06:08:31.195Z,292.00
2019-03-05T06:09:31.180Z,308.00
2019-03-05T06:10:31.200Z,332.00
2019-03-05T06:11:31.158Z,348.00
2019-03-05T06:12:31.144Z,368.00
2019-03-05T06:13:31.144Z,384.00
2019-03-05T06:14:31.135Z,408.00
2019-03-05T06:15:31.118Z,416.00
2019-03-05T06:16:31.132Z,392.00
2019-03-05T06:17:31.090Z,360.00
2019-03-05T06:18:31.080Z,420.00
2019-03-05T06:19:31.071Z,484.00
2019-03-05T06:20:31.064Z,500.00
2019-03-05T06:21:31.048Z,492.00
2019-03-05T06:22:31.078Z,476.00
2019-03-05T06:23:31.032Z,456.00
2019-03-05T06:24:31.026Z,468.00
2019-03-05T06:25:31.025Z,468.00
2019-03-05T06:26:30.992Z,532.00
2019-03-05T06:27:33.800Z,644.00
2019-03-05T06:28:30.999Z,680.00
2019-03-05T06:29:33.803Z,724.00
2019-03-05T06:30:30.948Z,704.00
2019-03-05T06:31:30.936Z,524.00
2019-03-05T06:32:30.926Z,504.00
2019-03-05T06:33:30.932Z,552.00
2019-03-05T06:34:30.934Z,496.00
2019-03-05T06:35:30.906Z,480.00
2019-03-05T06:36:30.888Z,540.00
2019-03-05T06:37:32.987Z,628.00
2019-03-05T06:38:30.860Z,576.00
2019-03-05T06:39:30.854Z,632.00
2019-03-05T06:40:31.335Z,680.00
2019-03-05T06:41:30.832Z,664.00
2019-03-05T06:42:30.820Z,692.00
2019-03-05T06:44:29.792Z,908.00
2019-03-05T06:45:30.824Z,1028.00
2019-03-05T06:46:30.774Z,1112.00
2019-03-05T06:47:30.771Z,1176.00
2019-03-05T06:48:30.764Z,1248.00
2019-03-05T06:49:30.766Z,1352.00
2019-03-05T06:50:33.293Z,1520.00
2019-03-05T06:51:30.727Z,1768.00
2019-03-05T06:52:30.738Z,2004.00
2019-03-05T06:53:30.696Z,2184.00
2019-03-05T06:54:30.693Z,2212.00
2019-03-05T06:55:30.683Z,2100.00
2019-03-05T06:56:30.674Z,1948.00
2019-03-05T06:57:30.734Z,1832.00
2019-03-05T06:58:33.710Z,1764.00
2019-03-05T06:59:30.665Z,1740.00
2019-03-05T07:00:30.622Z,1736.00
2019-03-05T07:01:30.614Z,1704.00
2019-03-05T07:02:30.605Z,1616.00
2019-03-05T07:03:30.592Z,1564.00
2019-03-05T07:04:30.583Z,1536.00
2019-03-05T07:05:30.610Z,1564.00
2019-03-05T07:06:30.564Z,1544.00
2019-03-05T07:07:30.572Z,1508.00
2019-03-05T07:08:30.539Z,1496.00
2019-03-05T07:09:30.538Z,1492.00
2019-03-05T07:10:30.510Z,1432.00
2019-03-05T07:11:30.513Z,1396.00
2019-03-05T07:12:30.521Z,1324.00
2019-03-05T07:13:30.480Z,1232.00
2019-03-05T07:14:30.479Z,1092.00
2019-03-05T07:15:30.487Z,948.00
2019-03-05T07:16:30.452Z,816.00
2019-03-05T07:17:30.468Z,724.00
2019-03-05T07:18:30.426Z,688.00
2019-03-05T07:19:30.413Z,700.00
2019-03-05T07:20:30.405Z,648.00
2019-03-05T07:21:30.396Z,644.00
2019-03-05T07:22:30.388Z,664.00
2019-03-05T07:23:30.395Z,668.00
2019-03-05T07:24:30.367Z,648.00
2019-03-05T07:25:30.348Z,636.00
2019-03-05T07:26:30.345Z,656.00
2019-03-05T07:27:33.279Z,684.00
2019-03-05T07:28:30.321Z,700.00
2019-03-05T07:29:30.334Z,740.00
2019-03-05T07:30:30.296Z,756.00
2019-03-05T07:31:30.296Z,796.00
2019-03-05T07:32:30.288Z,828.00
2019-03-05T07:33:30.266Z,864.00
2019-03-05T07:34:30.256Z,952.00
2019-03-05T07:35:30.272Z,1020.00
2019-03-05T07:36:30.243Z,1092.00
2019-03-05T07:37:30.225Z,1164.00
2019-03-05T07:38:30.210Z,1256.00
2019-03-05T07:39:30.197Z,1180.00
2019-03-05T07:40:30.213Z,1196.00
2019-03-05T07:41:30.179Z,1600.00
2019-03-05T07:42:30.167Z,1556.00
2019-03-05T07:43:36.524Z,1164.00
2019-03-05T07:44:30.145Z,1240.00
2019-03-05T07:45:30.133Z,1184.00
2019-03-05T07:46:30.148Z,1520.00
2019-03-05T07:47:30.124Z,1772.00
2019-03-05T07:48:30.104Z,1588.00
2019-03-05T07:49:30.117Z,1412.00
2019-03-05T07:50:30.120Z,1400.00
2019-03-05T07:51:30.068Z,1400.00
2019-03-05T07:52:30.054Z,1408.00
2019-03-05T07:53:30.047Z,1416.00
2019-03-05T07:54:30.036Z,1444.00
2019-03-05T07:55:30.053Z,1528.00
2019-03-05T07:56:30.018Z,1688.00
2019-03-05T07:57:30.000Z,1948.00
2019-03-05T07:58:29.988Z,2348.00
2019-03-05T07:59:30.010Z,2692.00
2019-03-05T08:00:29.972Z,2892.00
2019-03-05T08:01:30.243Z,3224.00
2019-03-05T08:02:29.948Z,3516.00
2019-03-05T08:03:29.937Z,3684.00
2019-03-05T08:04:29.925Z,3712.00
2019-03-05T08:05:30.172Z,3552.00
2019-03-05T08:06:29.918Z,3116.00
2019-03-05T08:07:29.954Z,2488.00
2019-03-05T08:08:32.780Z,2116.00
2019-03-05T08:09:29.871Z,1860.00
2019-03-05T08:10:29.891Z,1784.00
2019-03-05T08:11:31.848Z,1936.00
2019-03-05T08:12:29.837Z,2376.00
2019-03-05T08:13:29.824Z,3040.00
2019-03-05T08:14:29.821Z,3588.00
2019-03-05T08:15:32.779Z,3868.00
2019-03-05T08:16:29.821Z,3740.00
2019-03-05T08:17:29.782Z,3516.00
2019-03-05T08:18:29.776Z,3436.00
2019-03-05T08:19:29.788Z,3232.00
2019-03-05T08:20:29.751Z,2988.00
2019-03-05T08:21:29.739Z,2696.00
2019-03-05T08:22:29.768Z,2512.00
2019-03-05T08:23:29.766Z,2304.00
2019-03-05T08:24:29.747Z,2232.00
2019-03-05T08:25:29.744Z,1924.00
2019-03-05T08:26:29.689Z,1672.00
2019-03-05T08:27:29.674Z,1684.00
2019-03-05T08:28:29.657Z,1596.00
2019-03-05T08:29:29.679Z,1504.00
2019-03-05T08:30:29.637Z,1500.00
2019-03-05T08:31:32.261Z,1380.00
2019-03-05T08:32:29.616Z,1440.00
2019-03-05T08:33:29.602Z,1492.00
2019-03-05T08:34:29.628Z,1084.00
2019-03-05T08:35:29.622Z,1128.00
2019-03-05T08:36:29.570Z,1472.00
2019-03-05T08:37:29.553Z,1484.00
2019-03-05T08:38:29.551Z,1316.00
2019-03-05T08:39:29.581Z,1100.00
2019-03-05T08:40:29.534Z,1512.00
2019-03-05T08:41:29.519Z,1480.00
2019-03-05T08:42:29.509Z,1496.00
2019-03-05T08:43:29.490Z,1492.00
2019-03-05T08:44:29.494Z,1496.00
2019-03-05T08:45:29.861Z,1508.00
2019-03-05T08:46:29.485Z,1472.00
2019-03-05T08:47:29.448Z,328.00
2019-03-05T08:48:29.437Z,340.00
2019-03-05T08:49:31.296Z,340.00
2019-03-05T08:50:29.413Z,332.00
